OLBA/BEY METAR and TAF weather

Enter ICAO airport designator
Station Type Date Time Source
OLBA METAR 2020/07/11 02:00 UTC NOAA

OLBA 110200Z 15003KT 8000 NSC 24/20 Q1008 NOSIG


Station Type Date Time Source
OLBA Decoded METAR 2020/07/11 02:00 UTC NOAA

Beyrouth Aeroport , Lebanon (OLBA) 33-49N 035-29E 19M
Jul 10, 2020 - 10:00 PM EDT / 2020.07.11 0200 UTC
Wind: from the SSE (150 degrees) at 3 MPH (3 KT):0
Visibility: 4 mile(s):0
Temperature: 75 F (24 C)
Dew Point: 68 F (20 C)
Relative Humidity: 78%
Pressure (altimeter): 29.77 in. Hg (1008 hPa)
ob: OLBA 110200Z 15003KT 8000 NSC 24/20 Q1008 NOSIG
cycle: 2

Station Type Date Time Source
OLBA TAF 2020/07/10 18:55 UTC NOAA

TAF OLBA 101600Z 1018/1124 VRB03KT 8000 BKN022
TEMPO 1018/1124 5000 BR
BECMG 1109/1112 23010G20KT
BECMG 1121/1124 VRB03KT

Example: see airport list